createdAt,value
2022-12-23T00:00:41.176Z,100177.75
2022-12-23T00:03:08.508Z,100182.06
2022-12-23T00:05:38.117Z,100190.78
2022-12-23T00:08:07.236Z,100189.91
2022-12-23T00:10:38.601Z,100188.16
2022-12-23T00:13:24.025Z,100182.06
2022-12-23T00:15:51.082Z,100180.34
2022-12-23T00:18:18.052Z,100178.56
2022-12-23T00:20:45.398Z,100177.75
2022-12-23T00:23:12.569Z,100179.50
2022-12-23T00:25:42.436Z,100176.00
2022-12-23T00:28:18.334Z,100176.78
2022-12-23T00:30:54.281Z,100186.34
2022-12-23T00:33:29.727Z,100192.47
2022-12-23T00:35:57.743Z,100189.03
2022-12-23T00:38:44.230Z,100192.41
2022-12-23T00:41:31.787Z,100189.03
2022-12-23T00:43:59.631Z,100184.59
2022-12-23T00:46:27.091Z,100184.69
2022-12-23T00:49:13.600Z,100195.06
2022-12-23T00:51:40.306Z,100201.16
2022-12-23T00:54:07.668Z,100199.38
2022-12-23T00:56:34.850Z,100208.06
2022-12-23T00:59:02.151Z,100208.06
2022-12-23T01:01:47.491Z,100194.16
2022-12-23T01:04:35.200Z,100202.91
2022-12-23T01:07:03.037Z,100203.78
2022-12-23T01:09:30.388Z,100213.31
2022-12-23T01:11:57.215Z,100220.22
2022-12-23T01:14:24.602Z,100225.38
2022-12-23T01:16:51.791Z,100223.69
2022-12-23T01:19:19.070Z,100228.00
2022-12-23T01:21:45.958Z,100228.09
2022-12-23T01:24:12.817Z,100228.91
2022-12-23T01:26:39.936Z,100237.66
2022-12-23T01:29:06.784Z,100235.00
2022-12-23T01:31:33.659Z,100241.91
2022-12-23T01:34:00.776Z,100243.66
2022-12-23T01:36:27.664Z,100244.47
2022-12-23T01:38:56.334Z,100234.03
2022-12-23T01:41:47.696Z,100241.94
2022-12-23T01:44:52.935Z,100235.81
2022-12-23T01:47:22.968Z,100243.69
2022-12-23T01:49:52.608Z,100249.72
2022-12-23T01:52:20.259Z,100250.59
2022-12-23T01:54:47.104Z,100253.19
2022-12-23T01:57:14.415Z,100252.28
2022-12-23T02:00:01.430Z,100253.19
2022-12-23T02:02:49.481Z,100259.28
2022-12-23T02:05:16.904Z,100251.47
2022-12-23T02:08:03.568Z,100254.06
2022-12-23T02:10:57.863Z,100248.03
2022-12-23T02:14:24.481Z,100256.69
2022-12-23T02:17:07.532Z,100258.38
2022-12-23T02:20:09.413Z,100256.53
2022-12-23T02:23:01.402Z,100253.19
2022-12-23T02:25:31.252Z,100258.41
2022-12-23T02:28:15.893Z,100265.31
2022-12-23T02:30:50.344Z,100261.84
2022-12-23T02:33:30.481Z,100267.00
2022-12-23T02:36:19.426Z,100276.63
2022-12-23T02:39:14.355Z,100275.78
2022-12-23T02:41:57.252Z,100288.00
2022-12-23T02:44:38.845Z,100293.25
2022-12-23T02:47:11.815Z,100294.91
2022-12-23T02:49:43.899Z,100303.59
2022-12-23T02:52:15.087Z,100298.44
2022-12-23T02:54:54.872Z,100300.25
2022-12-23T02:57:29.411Z,100294.19
2022-12-23T02:59:58.048Z,100313.31
2022-12-23T03:02:25.201Z,100311.56
2022-12-23T03:04:52.024Z,100317.59
2022-12-23T03:07:30.090Z,100314.13
2022-12-23T03:10:27.957Z,100308.97
2022-12-23T03:12:57.964Z,100319.38
2022-12-23T03:15:35.348Z,100331.53
2022-12-23T03:18:21.211Z,100336.72
2022-12-23T03:21:10.577Z,100334.91
2022-12-23T03:23:55.672Z,100346.22
2022-12-23T03:26:40.767Z,100343.59
2022-12-23T03:29:28.485Z,100350.59
2022-12-23T03:31:59.364Z,100354.88
2022-12-23T03:34:32.357Z,100354.06
2022-12-23T03:37:05.429Z,100351.50
2022-12-23T03:39:37.692Z,100341.94
2022-12-23T03:42:16.363Z,100343.66
2022-12-23T03:45:10.591Z,100333.19
2022-12-23T03:47:45.342Z,100345.38
2022-12-23T03:50:15.729Z,100341.09
2022-12-23T03:52:59.959Z,100335.88
2022-12-23T03:55:33.480Z,100341.94
2022-12-23T03:58:22.619Z,100337.63
2022-12-23T04:01:17.950Z,100336.72
2022-12-23T04:04:10.827Z,100340.19
2022-12-23T04:06:53.802Z,100336.78
2022-12-23T04:09:24.528Z,100334.13
2022-12-23T04:11:51.705Z,100340.25
2022-12-23T04:14:20.400Z,100348.94
2022-12-23T04:16:50.452Z,100349.78
2022-12-23T04:19:17.363Z,100361.09
2022-12-23T04:21:44.992Z,100346.31
2022-12-23T04:24:11.874Z,100351.56
2022-12-23T04:26:38.853Z,100350.75
2022-12-23T04:29:05.848Z,100351.63
2022-12-23T04:31:32.740Z,100351.63
2022-12-23T04:33:59.745Z,100356.00
2022-12-23T04:36:26.986Z,100350.75
2022-12-23T04:38:54.866Z,100353.34
2022-12-23T04:41:21.797Z,100358.53
2022-12-23T04:43:52.962Z,100355.97
2022-12-23T04:46:21.708Z,100354.22
2022-12-23T04:48:48.856Z,100356.81
2022-12-23T04:51:15.867Z,100359.44
2022-12-23T04:53:42.730Z,100362.91
2022-12-23T04:56:09.891Z,100359.47
2022-12-23T04:58:36.821Z,100360.34
2022-12-23T05:01:07.033Z,100366.47
2022-12-23T05:03:35.193Z,100361.25
2022-12-23T05:06:02.501Z,100376.84
2022-12-23T05:08:30.430Z,100373.41
2022-12-23T05:10:57.467Z,100380.31
2022-12-23T05:13:24.393Z,100376.06
2022-12-23T05:15:53.238Z,100372.56
2022-12-23T05:18:21.150Z,100369.09
2022-12-23T05:20:49.218Z,100365.63
2022-12-23T05:23:15.983Z,100367.28
2022-12-23T05:25:42.938Z,100363.88
2022-12-23T05:28:10.550Z,100364.75
2022-12-23T05:30:37.786Z,100364.72
2022-12-23T05:33:04.762Z,100367.31
2022-12-23T05:35:31.600Z,100366.50
2022-12-23T05:37:58.561Z,100363.88
2022-12-23T05:40:29.672Z,100369.09
2022-12-23T05:42:57.925Z,100367.31
2022-12-23T05:45:25.214Z,100378.63
2022-12-23T05:47:52.392Z,100383.81
2022-12-23T05:50:20.319Z,100382.97
2022-12-23T05:52:47.175Z,100380.34
2022-12-23T05:55:13.897Z,100398.59
2022-12-23T05:57:41.424Z,100397.72
2022-12-23T06:00:09.516Z,100409.94
2022-12-23T06:02:36.639Z,100404.72
2022-12-23T06:05:03.890Z,100406.47
2022-12-23T06:07:31.785Z,100410.78
2022-12-23T06:09:58.925Z,100422.06
2022-12-23T06:12:25.781Z,100417.78
2022-12-23T06:14:52.460Z,100420.38
2022-12-23T06:17:19.710Z,100420.38
2022-12-23T06:19:47.481Z,100431.66
2022-12-23T06:22:14.862Z,100438.56
2022-12-23T06:24:41.775Z,100435.13
2022-12-23T06:27:08.527Z,100427.34
2022-12-23T06:29:35.687Z,100416.91
2022-12-23T06:32:02.978Z,100423.84
2022-12-23T06:34:31.498Z,100411.66
2022-12-23T06:36:59.567Z,100415.16
2022-12-23T06:39:28.873Z,100412.50
2022-12-23T06:41:55.685Z,100408.19
2022-12-23T06:44:22.503Z,100405.59
2022-12-23T06:46:49.664Z,100403.88
2022-12-23T06:49:16.836Z,100408.22
2022-12-23T06:51:43.481Z,100403.00
2022-12-23T06:54:11.961Z,100392.56
2022-12-23T06:56:39.796Z,100402.19
2022-12-23T06:59:06.706Z,100399.56
2022-12-23T07:01:33.685Z,100400.41
2022-12-23T07:04:01.942Z,100398.66
2022-12-23T07:06:29.851Z,100410.00
2022-12-23T07:08:56.696Z,100404.72
2022-12-23T07:11:24.228Z,100411.75
2022-12-23T07:13:51.284Z,100414.34
2022-12-23T07:16:18.252Z,100432.59
2022-12-23T07:18:46.915Z,100437.75
2022-12-23T07:21:22.908Z,100451.66
2022-12-23T07:23:55.383Z,100460.38
2022-12-23T07:26:23.013Z,100463.81
2022-12-23T07:28:50.146Z,100479.47
2022-12-23T07:31:17.388Z,100480.34
2022-12-23T07:33:44.636Z,100485.53
2022-12-23T07:36:11.999Z,100495.13
2022-12-23T07:38:39.559Z,100485.47
2022-12-23T07:41:06.188Z,100482.03
2022-12-23T07:43:33.275Z,100488.16
2022-12-23T07:46:06.452Z,100489.88
2022-12-23T07:48:33.979Z,100481.19
2022-12-23T07:51:02.212Z,100479.50
2022-12-23T07:53:29.561Z,100470.81
2022-12-23T07:55:57.137Z,100471.66
2022-12-23T07:58:24.798Z,100474.28
2022-12-23T08:00:59.492Z,100469.94
2022-12-23T08:03:26.784Z,100475.16
2022-12-23T08:06:07.170Z,100472.53
2022-12-23T08:08:35.198Z,100474.25
2022-12-23T08:11:07.576Z,100469.03
2022-12-23T08:13:37.968Z,100462.91
2022-12-23T08:16:07.231Z,100463.84
2022-12-23T08:18:37.987Z,100469.94
2022-12-23T08:21:07.931Z,100475.94
2022-12-23T08:23:35.986Z,100479.44
2022-12-23T08:26:15.733Z,100463.78
2022-12-23T08:28:44.637Z,100479.41
2022-12-23T08:31:19.440Z,100460.31
2022-12-23T08:33:56.625Z,100462.94
2022-12-23T08:36:29.372Z,100469.00
2022-12-23T08:38:59.410Z,100464.59
2022-12-23T08:41:29.908Z,100462.03
2022-12-23T08:43:57.763Z,100449.81
2022-12-23T08:46:24.914Z,100443.75
2022-12-23T08:48:53.161Z,100455.88
2022-12-23T08:51:22.137Z,100458.47
2022-12-23T08:53:53.523Z,100460.22
2022-12-23T08:56:25.828Z,100460.22
2022-12-23T08:58:54.261Z,100463.69
2022-12-23T09:01:23.619Z,100453.28
2022-12-23T09:03:51.637Z,100455.00
2022-12-23T09:06:31.884Z,100454.09
2022-12-23T09:08:59.355Z,100460.19
2022-12-23T09:11:29.111Z,100464.53
2022-12-23T09:13:57.896Z,100461.88
2022-12-23T09:16:26.246Z,100458.44
2022-12-23T09:18:53.403Z,100458.44
2022-12-23T09:21:22.009Z,100452.41
2022-12-23T09:23:49.182Z,100454.97
2022-12-23T09:26:23.353Z,100450.63
2022-12-23T09:28:50.584Z,100451.53
2022-12-23T09:31:18.763Z,100448.91
2022-12-23T09:33:51.088Z,100453.22
2022-12-23T09:36:18.514Z,100441.06
2022-12-23T09:38:46.171Z,100436.72
2022-12-23T09:41:21.149Z,100429.72
2022-12-23T09:43:58.677Z,100434.09
2022-12-23T09:46:30.451Z,100432.38
2022-12-23T09:49:02.946Z,100430.59
2022-12-23T09:51:30.898Z,100435.81
2022-12-23T09:54:19.342Z,100430.59
2022-12-23T09:57:18.955Z,100429.75
2022-12-23T10:00:07.929Z,100418.44
2022-12-23T10:02:53.628Z,100407.06
2022-12-23T10:05:35.363Z,100399.25
2022-12-23T10:08:12.557Z,100395.78
2022-12-23T10:10:44.501Z,100400.06
2022-12-23T10:13:29.669Z,100392.22
2022-12-23T10:16:21.196Z,100389.56
2022-12-23T10:19:18.116Z,100376.53
2022-12-23T10:21:52.558Z,100366.97
2022-12-23T10:24:19.500Z,100358.22
2022-12-23T10:26:54.047Z,100352.16
2022-12-23T10:29:23.712Z,100341.72
2022-12-23T10:32:23.263Z,100337.38
2022-12-23T10:35:11.792Z,100332.19
2022-12-23T10:37:51.645Z,100331.28
2022-12-23T10:40:35.067Z,100337.31
2022-12-23T10:43:22.161Z,100339.03
2022-12-23T10:46:27.920Z,100337.28
2022-12-23T10:49:13.837Z,100346.84
2022-12-23T10:51:48.805Z,100335.53
2022-12-23T10:54:31.323Z,100329.50
2022-12-23T10:56:58.624Z,100315.59
2022-12-23T10:59:28.129Z,100311.25
2022-12-23T11:02:01.714Z,100315.56
2022-12-23T11:04:35.558Z,100312.06
2022-12-23T11:07:34.331Z,100299.91
2022-12-23T11:09:58.728Z,100298.31
2022-12-23T11:12:42.651Z,100296.47
2022-12-23T11:15:27.746Z,100291.31
2022-12-23T11:18:17.087Z,100280.81
2022-12-23T11:21:05.275Z,100279.81
2022-12-23T11:23:35.817Z,100280.63
2022-12-23T11:26:10.613Z,100277.16
2022-12-23T11:28:40.792Z,100271.84
2022-12-23T11:31:14.674Z,100273.59
2022-12-23T11:33:59.642Z,100261.41
2022-12-23T11:36:28.943Z,100259.78
2022-12-23T11:38:58.554Z,100260.59
2022-12-23T11:41:29.515Z,100252.81
2022-12-23T11:44:00.607Z,100252.88
2022-12-23T11:46:30.677Z,100245.91
2022-12-23T11:49:06.899Z,100223.25
2022-12-23T11:51:33.975Z,100212.81
2022-12-23T11:54:02.590Z,100201.41
2022-12-23T11:56:38.381Z,100190.88
2022-12-23T11:59:22.652Z,100179.47
2022-12-23T12:01:50.696Z,100162.13
2022-12-23T12:04:22.166Z,100162.06
2022-12-23T12:06:56.129Z,100149.88
2022-12-23T12:09:24.855Z,100147.28
2022-12-23T12:12:05.617Z,100148.16
2022-12-23T12:15:01.746Z,100150.06
2022-12-23T12:17:39.600Z,100155.31
2022-12-23T12:20:14.558Z,100140.50
2022-12-23T12:22:48.883Z,100132.72
2022-12-23T12:25:39.576Z,100125.84
2022-12-23T12:28:13.682Z,100125.88
2022-12-23T12:31:03.200Z,100131.09
2022-12-23T12:33:40.859Z,100126.84
2022-12-23T12:36:27.412Z,100133.72
2022-12-23T12:38:57.992Z,100127.72
2022-12-23T12:41:34.214Z,100111.38
2022-12-23T12:44:20.166Z,100119.22
2022-12-23T12:46:53.967Z,100113.97
2022-12-23T12:50:14.121Z,100103.56
2022-12-23T12:52:43.058Z,100095.78
2022-12-23T12:55:22.475Z,100091.44
2022-12-23T12:57:49.531Z,100075.78
2022-12-23T13:00:19.974Z,100071.56
2022-12-23T13:03:22.087Z,100068.09
2022-12-23T13:06:17.334Z,100048.03
2022-12-23T13:08:47.400Z,100042.06
2022-12-23T13:11:44.184Z,100035.94
2022-12-23T13:14:29.838Z,100042.78
2022-12-23T13:17:15.688Z,100026.19
2022-12-23T13:20:03.448Z,100001.88
2022-12-23T13:22:33.624Z,100001.22
2022-12-23T13:25:08.957Z,100010.00
2022-12-23T13:27:56.276Z,99997.81
2022-12-23T13:30:27.236Z,99995.09
2022-12-23T13:33:16.105Z,99996.03
2022-12-23T13:36:05.435Z,99992.66
2022-12-23T13:38:39.462Z,99990.88
2022-12-23T13:41:21.670Z,99983.88
2022-12-23T13:43:56.458Z,99987.44
2022-12-23T13:46:42.210Z,99978.78
2022-12-23T13:49:21.228Z,99960.59
2022-12-23T13:52:00.454Z,99953.59
2022-12-23T13:54:42.228Z,99935.38
2022-12-23T13:57:44.639Z,99913.75
2022-12-23T14:00:17.725Z,99902.56
2022-12-23T14:03:03.511Z,99912.13
2022-12-23T14:05:50.889Z,99911.25
2022-12-23T14:08:31.044Z,99896.56
2022-12-23T14:11:00.732Z,99907.88
2022-12-23T14:13:31.654Z,99899.06
2022-12-23T14:16:19.506Z,99883.66
2022-12-23T14:18:55.497Z,99885.44
2022-12-23T14:21:31.755Z,99889.81
2022-12-23T14:24:14.685Z,99888.94
2022-12-23T14:26:47.821Z,99880.13
2022-12-23T14:29:14.551Z,99879.47
2022-12-23T14:31:44.913Z,99865.66
2022-12-23T14:34:17.956Z,99857.03
2022-12-23T14:37:23.054Z,99857.91
2022-12-23T14:39:51.267Z,99845.75
2022-12-23T14:42:35.069Z,99862.19
2022-12-23T14:45:35.909Z,99839.63
2022-12-23T14:48:34.424Z,99827.47
2022-12-23T14:51:01.321Z,99821.44
2022-12-23T14:53:29.994Z,99828.25
2022-12-23T14:56:35.392Z,99810.06
2022-12-23T14:59:16.323Z,99810.03
2022-12-23T15:01:56.741Z,99811.75
2022-12-23T15:04:34.610Z,99819.56
2022-12-23T15:07:15.154Z,99816.16
2022-12-23T15:09:58.665Z,99807.41
2022-12-23T15:12:46.109Z,99799.53
2022-12-23T15:15:13.649Z,99803.03
2022-12-23T15:17:40.812Z,99791.72
2022-12-23T15:20:20.603Z,99798.56
2022-12-23T15:22:49.005Z,99795.94
2022-12-23T15:25:25.156Z,99799.53
2022-12-23T15:28:00.813Z,99805.63
2022-12-23T15:30:36.603Z,99813.38
2022-12-23T15:33:21.832Z,99817.69
2022-12-23T15:35:54.501Z,99814.84
2022-12-23T15:38:27.825Z,99818.28
2022-12-23T15:41:01.097Z,99809.50
2022-12-23T15:43:29.747Z,99813.72
2022-12-23T15:46:08.191Z,99811.97
2022-12-23T15:48:35.676Z,99816.97
2022-12-23T15:51:11.093Z,99822.03
2022-12-23T15:53:42.470Z,99810.53
2022-12-23T15:56:19.849Z,99820.81
2022-12-23T15:58:47.433Z,99826.59
2022-12-23T16:01:16.971Z,99821.03
2022-12-23T16:03:50.399Z,99827.59
2022-12-23T16:06:23.099Z,99834.31
2022-12-23T16:08:59.656Z,99830.53
2022-12-23T16:11:40.885Z,99828.66
2022-12-23T16:14:40.983Z,99836.53
2022-12-23T16:17:08.229Z,99842.56
2022-12-23T16:20:13.228Z,99837.31
2022-12-23T16:22:40.185Z,99826.88
2022-12-23T16:25:22.353Z,99821.66
2022-12-23T16:27:59.012Z,99825.94
2022-12-23T16:30:38.078Z,99824.22
2022-12-23T16:33:22.748Z,99832.03
2022-12-23T16:35:49.617Z,99835.44
2022-12-23T16:38:25.047Z,99838.84
2022-12-23T16:40:56.935Z,99852.91
2022-12-23T16:43:25.226Z,99857.28
2022-12-23T16:45:55.959Z,99859.97
2022-12-23T16:48:23.194Z,99854.69
2022-12-23T16:50:52.508Z,99865.28
2022-12-23T16:53:20.410Z,99863.63
2022-12-23T16:55:53.824Z,99869.63
2022-12-23T16:58:25.480Z,99866.63
2022-12-23T17:00:53.468Z,99871.69
2022-12-23T17:03:20.989Z,99875.84
2022-12-23T17:05:48.827Z,99871.28
2022-12-23T17:08:15.695Z,99874.31
2022-12-23T17:10:47.036Z,99886.28
2022-12-23T17:13:16.781Z,99883.44
2022-12-23T17:15:44.519Z,99891.19
2022-12-23T17:18:18.680Z,99890.22
2022-12-23T17:20:47.715Z,99904.75
2022-12-23T17:23:34.700Z,99896.00
2022-12-23T17:26:01.828Z,99896.75
2022-12-23T17:28:32.238Z,99895.59
2022-12-23T17:31:00.489Z,99906.84
2022-12-23T17:33:30.198Z,99923.59
2022-12-23T17:35:57.512Z,99935.78
2022-12-23T17:38:24.833Z,99940.97
2022-12-23T17:40:52.154Z,99932.22
2022-12-23T17:43:19.267Z,99930.31
2022-12-23T17:45:47.054Z,99946.88
2022-12-23T17:48:20.806Z,99952.13
2022-12-23T17:50:51.139Z,99948.81
2022-12-23T17:53:19.841Z,99959.97
2022-12-23T17:55:46.858Z,99967.91
2022-12-23T17:58:14.565Z,99962.72
2022-12-23T18:00:41.605Z,99965.28
2022-12-23T18:03:22.447Z,99956.81
2022-12-23T18:05:52.980Z,99979.75
2022-12-23T18:08:24.162Z,99974.28
2022-12-23T18:10:51.600Z,99973.34
2022-12-23T18:13:20.335Z,99974.34
2022-12-23T18:15:48.716Z,99981.47
2022-12-23T18:18:28.628Z,99987.50
2022-12-23T18:21:01.108Z,99998.97
2022-12-23T18:23:32.172Z,100002.47
2022-12-23T18:26:00.307Z,99998.88
2022-12-23T18:28:27.791Z,99988.44
2022-12-23T18:30:56.770Z,100004.81
2022-12-23T18:33:28.500Z,100006.81
2022-12-23T18:35:56.116Z,100014.50
2022-12-23T18:38:23.699Z,100018.06
2022-12-23T18:40:53.927Z,100018.16
2022-12-23T18:43:25.274Z,100032.97
2022-12-23T18:45:53.919Z,100034.06
2022-12-23T18:48:21.941Z,100036.78
2022-12-23T18:50:49.144Z,100029.94
2022-12-23T18:53:23.655Z,100042.06
2022-12-23T18:55:52.764Z,100055.22
2022-12-23T18:58:20.378Z,100043.91
2022-12-23T19:00:49.404Z,100048.19
2022-12-23T19:03:28.537Z,100057.91
2022-12-23T19:05:57.033Z,100051.75
2022-12-23T19:08:27.539Z,100058.66
2022-12-23T19:10:56.028Z,100072.75
2022-12-23T19:13:23.657Z,100063.94
2022-12-23T19:15:51.238Z,100065.91
2022-12-23T19:18:21.290Z,100070.13
2022-12-23T19:20:49.426Z,100065.94
2022-12-23T19:23:17.689Z,100079.69
2022-12-23T19:25:52.517Z,100076.34
2022-12-23T19:28:22.690Z,100074.41
2022-12-23T19:30:50.098Z,100081.34
2022-12-23T19:33:17.284Z,100074.50
2022-12-23T19:35:44.961Z,100078.13
2022-12-23T19:38:12.442Z,100076.44
2022-12-23T19:40:40.756Z,100076.38
2022-12-23T19:43:07.771Z,100086.88
2022-12-23T19:45:34.571Z,100087.03
2022-12-23T19:48:01.494Z,100092.06
2022-12-23T19:50:28.919Z,100097.41
2022-12-23T19:52:56.649Z,100100.75
2022-12-23T19:55:24.204Z,100112.19
2022-12-23T19:57:52.318Z,100102.69
2022-12-23T20:00:20.000Z,100124.34
2022-12-23T20:02:47.418Z,100121.72
2022-12-23T20:05:17.094Z,100119.88
2022-12-23T20:07:43.814Z,100122.41
2022-12-23T20:10:11.136Z,100130.31
2022-12-23T20:12:39.255Z,100131.16
2022-12-23T20:15:06.862Z,100136.50
2022-12-23T20:17:33.875Z,100140.00
2022-12-23T20:20:01.246Z,100142.59
2022-12-23T20:22:28.334Z,100153.81
2022-12-23T20:24:55.682Z,100158.03
2022-12-23T20:27:27.896Z,100158.84
2022-12-23T20:29:55.351Z,100170.28
2022-12-23T20:32:22.754Z,100166.03
2022-12-23T20:34:50.292Z,100160.72
2022-12-23T20:37:17.684Z,100171.94
2022-12-23T20:39:44.605Z,100182.56
2022-12-23T20:42:11.356Z,100179.22
2022-12-23T20:44:38.202Z,100187.75
2022-12-23T20:47:06.344Z,100188.75
2022-12-23T20:49:34.659Z,100203.56
2022-12-23T20:52:01.672Z,100199.38
2022-12-23T20:54:33.216Z,100212.63
2022-12-23T20:57:01.960Z,100209.94
2022-12-23T20:59:29.075Z,100212.69
2022-12-23T21:01:58.777Z,100218.66
2022-12-23T21:04:27.333Z,100211.69
2022-12-23T21:06:54.324Z,100210.00
2022-12-23T21:09:21.088Z,100217.88
2022-12-23T21:11:48.388Z,100224.97
2022-12-23T21:14:16.242Z,100233.78
2022-12-23T21:16:44.163Z,100229.56
2022-12-23T21:19:24.868Z,100245.34
2022-12-23T21:21:52.562Z,100234.22
2022-12-23T21:24:20.121Z,100240.19
2022-12-23T21:26:55.717Z,100238.44
2022-12-23T21:29:24.321Z,100249.81
2022-12-23T21:31:51.394Z,100254.13
2022-12-23T21:34:18.648Z,100261.06
2022-12-23T21:36:46.158Z,100265.44
2022-12-23T21:39:15.787Z,100261.91
2022-12-23T21:41:43.542Z,100254.94
2022-12-23T21:44:13.676Z,100265.38
2022-12-23T21:46:40.828Z,100274.91
2022-12-23T21:49:07.711Z,100272.28
2022-12-23T21:51:40.308Z,100281.97
2022-12-23T21:54:10.673Z,100288.03
2022-12-23T21:56:38.446Z,100284.59
2022-12-23T21:59:08.760Z,100288.94
2022-12-23T22:01:36.386Z,100293.25
2022-12-23T22:04:03.855Z,100293.25
2022-12-23T22:06:33.164Z,100295.03
2022-12-23T22:09:00.236Z,100315.13
2022-12-23T22:11:29.516Z,100316.03
2022-12-23T22:13:59.240Z,100320.41
2022-12-23T22:16:28.103Z,100319.34
2022-12-23T22:18:57.086Z,100323.78
2022-12-23T22:21:26.147Z,100315.97
2022-12-23T22:23:54.033Z,100321.22
2022-12-23T22:26:25.679Z,100338.66
2022-12-23T22:28:55.124Z,100329.00
2022-12-23T22:31:40.499Z,100336.78
2022-12-23T22:34:08.612Z,100342.97
2022-12-23T22:36:35.891Z,100340.41
2022-12-23T22:39:03.666Z,100345.59
2022-12-23T22:41:32.101Z,100362.84
2022-12-23T22:43:59.887Z,100368.06
2022-12-23T22:46:27.547Z,100362.84
2022-12-23T22:48:54.779Z,100378.50
2022-12-23T22:51:27.883Z,100379.47
2022-12-23T22:53:56.114Z,100389.00
2022-12-23T22:56:24.908Z,100395.09
2022-12-23T22:58:53.035Z,100388.13
2022-12-23T23:01:22.677Z,100397.88
2022-12-23T23:03:56.921Z,100383.88
2022-12-23T23:06:30.295Z,100406.47
2022-12-23T23:08:58.140Z,100403.03
2022-12-23T23:11:27.342Z,100417.00
2022-12-23T23:13:54.830Z,100410.00
2022-12-23T23:16:22.314Z,100394.22
2022-12-23T23:18:50.063Z,100406.50
2022-12-23T23:21:17.781Z,100404.78
2022-12-23T23:23:46.798Z,100420.44
2022-12-23T23:26:14.998Z,100418.59
2022-12-23T23:28:42.330Z,100424.81
2022-12-23T23:31:40.391Z,100440.47
2022-12-23T23:33:58.070Z,100435.19
2022-12-23T23:36:25.448Z,100442.19
2022-12-23T23:38:52.288Z,100431.00
2022-12-23T23:41:23.186Z,100435.34
2022-12-23T23:43:51.997Z,100433.53
2022-12-23T23:46:19.874Z,100439.66
2022-12-23T23:48:47.659Z,100452.75
2022-12-23T23:51:15.087Z,100462.31
2022-12-23T23:53:42.341Z,100457.94
2022-12-23T23:56:09.807Z,100456.22
2022-12-23T23:58:37.696Z,100469.38
